createdAt,value
2022-11-30T00:00:44.938Z,19.60
2022-11-30T00:01:44.910Z,20.30
2022-11-30T00:02:45.048Z,19.40
2022-11-30T00:03:44.941Z,19.50
2022-11-30T00:04:45.198Z,18.80
2022-11-30T00:05:44.868Z,19.00
2022-11-30T00:06:44.853Z,18.70
2022-11-30T00:07:44.914Z,18.70
2022-11-30T00:08:44.845Z,19.30
2022-11-30T00:09:44.838Z,17.80
2022-11-30T00:10:44.808Z,17.70
2022-11-30T00:11:44.818Z,17.60
2022-11-30T00:12:44.788Z,18.30
2022-11-30T00:13:44.780Z,18.10
2022-11-30T00:14:45.161Z,17.80
2022-11-30T00:15:44.758Z,16.80
2022-11-30T00:16:44.826Z,17.90
2022-11-30T00:17:44.736Z,17.20
2022-11-30T00:18:44.738Z,16.80
2022-11-30T00:19:44.712Z,17.10
2022-11-30T00:20:45.261Z,16.20
2022-11-30T00:21:44.689Z,16.60
2022-11-30T00:22:44.677Z,16.20
2022-11-30T00:23:44.684Z,16.60
2022-11-30T00:24:45.083Z,17.00
2022-11-30T00:25:44.651Z,16.40
2022-11-30T00:26:44.632Z,16.90
2022-11-30T00:27:44.624Z,16.60
2022-11-30T00:28:44.641Z,16.20
2022-11-30T00:29:44.617Z,17.60
2022-11-30T00:30:44.618Z,17.10
2022-11-30T00:31:44.582Z,16.00
2022-11-30T00:32:44.565Z,16.00
2022-11-30T00:33:44.557Z,17.10
2022-11-30T00:34:44.842Z,16.70
2022-11-30T00:35:44.551Z,16.60
2022-11-30T00:36:44.559Z,16.20
2022-11-30T00:37:44.533Z,15.90
2022-11-30T00:38:44.500Z,15.70
2022-11-30T00:39:44.491Z,15.80
2022-11-30T00:40:44.500Z,16.40
2022-11-30T00:41:44.471Z,16.20
2022-11-30T00:42:44.474Z,17.00
2022-11-30T00:43:44.445Z,16.20
2022-11-30T00:44:51.941Z,16.10
2022-11-30T00:45:44.477Z,16.30
2022-11-30T00:46:44.420Z,16.20
2022-11-30T00:47:44.410Z,16.80
2022-11-30T00:48:44.423Z,16.50
2022-11-30T00:49:44.389Z,15.90
2022-11-30T00:50:44.364Z,15.90
2022-11-30T00:51:44.483Z,16.30
2022-11-30T00:52:44.363Z,16.10
2022-11-30T00:53:44.343Z,16.10
2022-11-30T00:54:44.603Z,16.30
2022-11-30T00:55:44.336Z,15.60
2022-11-30T00:56:44.308Z,16.30
2022-11-30T00:57:44.308Z,16.60
2022-11-30T00:58:44.287Z,16.00
2022-11-30T00:59:44.308Z,16.10
2022-11-30T01:00:44.263Z,15.70
2022-11-30T01:01:44.318Z,16.30
2022-11-30T01:02:44.272Z,15.50
2022-11-30T01:03:44.224Z,16.70
2022-11-30T01:04:44.587Z,16.00
2022-11-30T01:05:44.223Z,15.00
2022-11-30T01:06:44.206Z,15.40
2022-11-30T01:07:44.283Z,14.90
2022-11-30T01:08:44.190Z,16.10
2022-11-30T01:09:44.166Z,15.90
2022-11-30T01:10:44.192Z,16.10
2022-11-30T01:11:44.172Z,15.70
2022-11-30T01:12:44.123Z,15.70
2022-11-30T01:13:44.146Z,15.00
2022-11-30T01:14:44.655Z,14.50
2022-11-30T01:15:44.230Z,15.10
2022-11-30T01:16:44.083Z,15.90
2022-11-30T01:17:44.070Z,14.90
2022-11-30T01:18:44.071Z,15.10
2022-11-30T01:19:44.062Z,15.00
2022-11-30T01:20:44.036Z,14.90
2022-11-30T01:21:44.028Z,15.50
2022-11-30T01:22:44.029Z,14.10
2022-11-30T01:23:44.025Z,14.80
2022-11-30T01:24:44.275Z,15.00
2022-11-30T01:25:43.987Z,15.20
2022-11-30T01:26:43.978Z,15.10
2022-11-30T01:27:43.984Z,15.20
2022-11-30T01:28:44.002Z,14.60
2022-11-30T01:29:43.954Z,15.70
2022-11-30T01:30:44.080Z,15.10
2022-11-30T01:31:43.917Z,15.10
2022-11-30T01:32:43.916Z,15.80
2022-11-30T23:10:29.047Z,17.20
2022-11-30T23:11:29.015Z,21.60
2022-11-30T23:12:57.339Z,21.40
2022-11-30T23:13:29.993Z,20.90
2022-11-30T23:14:28.975Z,21.20
2022-11-30T23:15:28.972Z,21.10
2022-11-30T23:16:29.074Z,20.60
2022-11-30T23:17:28.934Z,20.60
2022-11-30T23:18:28.947Z,21.20
2022-11-30T23:19:28.927Z,21.10
2022-11-30T23:20:28.963Z,23.10
2022-11-30T23:21:30.114Z,20.80
2022-11-30T23:22:28.893Z,21.40
2022-11-30T23:23:28.891Z,22.20
2022-11-30T23:24:28.892Z,21.90
2022-11-30T23:25:28.850Z,21.70
2022-11-30T23:26:28.862Z,23.40
2022-11-30T23:27:28.823Z,21.20
2022-11-30T23:28:28.814Z,22.70
2022-11-30T23:29:28.818Z,22.40
2022-11-30T23:30:28.808Z,21.90
2022-11-30T23:31:33.737Z,22.50
2022-11-30T23:32:29.792Z,21.10
2022-11-30T23:33:28.768Z,21.90
2022-11-30T23:34:28.801Z,22.00
2022-11-30T23:35:28.740Z,22.30
2022-11-30T23:36:28.732Z,22.30
2022-11-30T23:37:28.714Z,22.30
2022-11-30T23:38:28.708Z,22.60
2022-11-30T23:39:28.720Z,22.70
2022-11-30T23:40:28.693Z,22.80
2022-11-30T23:41:28.670Z,22.60
2022-11-30T23:42:28.681Z,21.70
2022-11-30T23:43:28.664Z,23.20
2022-11-30T23:44:28.657Z,22.00
2022-11-30T23:45:28.627Z,22.10
2022-11-30T23:46:28.702Z,22.40
2022-11-30T23:47:28.627Z,20.70
2022-11-30T23:48:28.617Z,20.60
2022-11-30T23:49:28.584Z,20.90
2022-11-30T23:50:28.577Z,19.70
2022-11-30T23:51:28.565Z,20.40
2022-11-30T23:52:28.580Z,20.20
2022-11-30T23:53:28.542Z,18.40
2022-11-30T23:54:28.533Z,17.90
2022-11-30T23:55:28.537Z,18.70
2022-11-30T23:56:28.511Z,18.10
2022-11-30T23:57:28.513Z,17.70
2022-11-30T23:58:28.524Z,18.50
2022-11-30T23:59:28.489Z,18.80
